^^
Saratoga-Weather Station Historical Data
Daily Summary for August 08, 2022 Units:  Both    English   Metric
Daily Weekly Monthly Yearly Custom
  High: Low: Average:
Temperature: 87.1 °F /  30.6 °C 62.2 °F /  16.8 °C 74.3 °F /  23.5 °C
Dew Point: 52 °F /  11.1 °C 45.3 °F /  7.4 °C 49.1 °F /  9.5 °C
Humidity: 60% 28% 43%
Wind Speed: 8.9mph /  14.3km/h - 2.3mph /  3.7km/h
Wind Gust: 15mph /  24.1km/h - -
Wind- - SW
Pressure: 30.2 in /  1021.7 hPa 30.1 in /  1019.3 hPa -
Precipitation: 0 in /  0.0 mm    
Historical Graphs
 
 
Tabular Data for August 08, 2022
Time Temperature Dew Point Pressure Wind Wind Speed Wind Gust Humidity Rainfall Rate (Hourly) solar
00:00 68.7 °F /  20.4 °C 45.3 °F /  7.4 °C 30.1in /  1020.0hPa North 2mph /  3.2km/h 5mph /  8km/h 43% 0in /  0.0mm 0 W/m2
00:05 68.7 °F /  20.4 °C 45.3 °F /  7.4 °C 30.1in /  1020.0hPa West 2mph /  3.2km/h 4mph /  6.4km/h 43% 0in /  0.0mm 0 W/m2
00:10 68.7 °F /  20.4 °C 45.3 °F /  7.4 °C 30.1in /  1020.0hPa West 0.9mph /  1.4km/h 4mph /  6.4km/h 43% 0in /  0.0mm 0 W/m2
00:15 68.7 °F /  20.4 °C 45.3 °F /  7.4 °C 30.1in /  1020.0hPa West 6mph /  9.7km/h 7mph /  11.3km/h 43% 0in /  0.0mm 0 W/m2
00:20 68.7 °F /  20.4 °C 45.3 °F /  7.4 °C 30.1in /  1020.0hPa West 2.9mph /  4.7km/h 7mph /  11.3km/h 43% 0in /  0.0mm 0 W/m2
00:25 68.7 °F /  20.4 °C 45.3 °F /  7.4 °C 30.1in /  1020.0hPa West 6mph /  9.7km/h 9mph /  14.5km/h 43% 0in /  0.0mm 0 W/m2
00:30 68.5 °F /  20.3 °C 45.7 °F /  7.6 °C 30.1in /  1020.3hPa WSW 4mph /  6.4km/h 6mph /  9.7km/h 44% 0in /  0.0mm 0 W/m2
00:35 68.5 °F /  20.3 °C 45.7 °F /  7.6 °C 30.1in /  1020.3hPa NNW 2mph /  3.2km/h 6mph /  9.7km/h 44% 0in /  0.0mm 0 W/m2
00:40 68.4 °F /  20.2 °C 45.7 °F /  7.6 °C 30.1in /  1020.3hPa West 2.9mph /  4.7km/h 6mph /  9.7km/h 44% 0in /  0.0mm 0 W/m2
00:45 68.4 °F /  20.2 °C 46.2 °F /  7.9 °C 30.1in /  1020.3hPa NW 2mph /  3.2km/h 7mph /  11.3km/h 45% 0in /  0.0mm 0 W/m2
00:50 68.2 °F /  20.1 °C 46 °F /  7.8 °C 30.1in /  1020.3hPa West 2.9mph /  4.7km/h 4mph /  6.4km/h 45% 0in /  0.0mm 0 W/m2
00:55 68.2 °F /  20.1 °C 46 °F /  7.8 °C 30.1in /  1020.3hPa North 2.9mph /  4.7km/h 6mph /  9.7km/h 45% 0in /  0.0mm 0 W/m2
01:00 68.2 °F /  20.1 °C 46 °F /  7.8 °C 30.1in /  1020.3hPa WNW 2mph /  3.2km/h 4mph /  6.4km/h 45% 0in /  0.0mm 0 W/m2
01:05 68 °F /  20 °C 46.4 °F /  8 °C 30.1in /  1020.3hPa West 0.9mph /  1.4km/h 3mph /  4.8km/h 46% 0in /  0.0mm 0 W/m2
01:10 67.8 °F /  19.9 °C 46.2 °F /  7.9 °C 30.1in /  1020.3hPa West 4mph /  6.4km/h 5mph /  8km/h 46% 0in /  0.0mm 0 W/m2
01:15 67.6 °F /  19.8 °C 46 °F /  7.8 °C 30.1in /  1020.3hPa NW 2mph /  3.2km/h 5mph /  8km/h 46% 0in /  0.0mm 0 W/m2
01:20 67.5 °F /  19.7 °C 46.6 °F /  8.1 °C 30.1in /  1020.3hPa NW 4mph /  6.4km/h 9mph /  14.5km/h 47% 0in /  0.0mm 0 W/m2
01:25 67.5 °F /  19.7 °C 47.1 °F /  8.4 °C 30.1in /  1020.3hPa West 2.9mph /  4.7km/h 8mph /  12.9km/h 48% 0in /  0.0mm 0 W/m2
01:30 67.3 °F /  19.6 °C 46.9 °F /  8.3 °C 30.1in /  1020.3hPa WSW 2mph /  3.2km/h 6mph /  9.7km/h 48% 0in /  0.0mm 0 W/m2
01:35 67.3 °F /  19.6 °C 47.5 °F /  8.6 °C 30.1in /  1020.3hPa West 2mph /  3.2km/h 7mph /  11.3km/h 49% 0in /  0.0mm 0 W/m2
01:40 67.1 °F /  19.5 °C 47.3 °F /  8.5 °C 30.1in /  1020.3hPa WNW 4mph /  6.4km/h 6mph /  9.7km/h 49% 0in /  0.0mm 0 W/m2
01:45 66.9 °F /  19.4 °C 47.1 °F /  8.4 °C 30.1in /  1020.3hPa West 2.9mph /  4.7km/h 4mph /  6.4km/h 49% 0in /  0.0mm 0 W/m2
01:50 66.7 °F /  19.3 °C 47.5 °F /  8.6 °C 30.1in /  1020.3hPa West 2.9mph /  4.7km/h 8mph /  12.9km/h 50% 0in /  0.0mm 0 W/m2
01:55 66.7 °F /  19.3 °C 47.5 °F /  8.6 °C 30.1in /  1020.3hPa West 2.9mph /  4.7km/h 6mph /  9.7km/h 50% 0in /  0.0mm 0 W/m2
02:00 66.7 °F /  19.3 °C 47.5 °F /  8.6 °C 30.1in /  1020.3hPa NW 2mph /  3.2km/h 4mph /  6.4km/h 50% 0in /  0.0mm 0 W/m2
02:05 66.6 °F /  19.2 °C 47.8 °F /  8.8 °C 30.1in /  1020.3hPa NNW 4mph /  6.4km/h 4mph /  6.4km/h 51% 0in /  0.0mm 0 W/m2
02:10 66.6 °F /  19.2 °C 47.8 °F /  8.8 °C 30.1in /  1020.3hPa WNW 2.9mph /  4.7km/h 6mph /  9.7km/h 51% 0in /  0.0mm 0 W/m2
02:15 66.4 °F /  19.1 °C 47.7 °F /  8.7 °C 30.1in /  1020.3hPa WNW 4mph /  6.4km/h 7mph /  11.3km/h 51% 0in /  0.0mm 0 W/m2
02:20 66.2 °F /  19 °C 48 °F /  8.9 °C 30.1in /  1020.3hPa South 2mph /  3.2km/h 4mph /  6.4km/h 52% 0in /  0.0mm 0 W/m2
02:25 66 °F /  18.9 °C 47.8 °F /  8.8 °C 30.1in /  1020.3hPa NW 2mph /  3.2km/h 4mph /  6.4km/h 52% 0in /  0.0mm 0 W/m2
02:30 65.8 °F /  18.8 °C 47.7 °F /  8.7 °C 30.1in /  1020.3hPa WSW 4.9mph /  7.9km/h 8mph /  12.9km/h 52% 0in /  0.0mm 0 W/m2
02:35 65.8 °F /  18.8 °C 47.7 °F /  8.7 °C 30.1in /  1020.3hPa West 2mph /  3.2km/h 5mph /  8km/h 52% 0in /  0.0mm 0 W/m2
02:40 65.8 °F /  18.8 °C 48.2 °F /  9 °C 30.1in /  1020.3hPa SW 0.9mph /  1.4km/h 8mph /  12.9km/h 53% 0in /  0.0mm 0 W/m2
02:45 65.7 °F /  18.7 °C 48 °F /  8.9 °C 30.1in /  1020.3hPa West 2mph /  3.2km/h 4mph /  6.4km/h 53% 0in /  0.0mm 0 W/m2
02:50 65.5 °F /  18.6 °C 48.4 °F /  9.1 °C 30.1in /  1020.3hPa South 2mph /  3.2km/h 3mph /  4.8km/h 54% 0in /  0.0mm 0 W/m2
02:55 65.1 °F /  18.4 °C 48 °F /  8.9 °C 30.1in /  1020.3hPa NE 2.9mph /  4.7km/h 4mph /  6.4km/h 54% 0in /  0.0mm 0 W/m2
03:00 64.9 °F /  18.3 °C 48.4 °F /  9.1 °C 30.1in /  1020.0hPa Calm   2mph /  3.2km/h 55% 0in /  0.0mm 0 W/m2
03:05 64.8 °F /  18.2 °C 47.7 °F /  8.7 °C 30.1in /  1020.0hPa WSW 0.9mph /  1.4km/h 2mph /  3.2km/h 54% 0in /  0.0mm 0 W/m2
03:10 64.8 °F /  18.2 °C 48.2 °F /  9 °C 30.1in /  1020.0hPa WSW 2mph /  3.2km/h 5mph /  8km/h 55% 0in /  0.0mm 0 W/m2
03:15 64.6 °F /  18.1 °C 48 °F /  8.9 °C 30.1in /  1020.3hPa NNW 2.9mph /  4.7km/h 3mph /  4.8km/h 55% 0in /  0.0mm 0 W/m2
03:20 64.6 °F /  18.1 °C 48 °F /  8.9 °C 30.1in /  1020.3hPa WNW 2mph /  3.2km/h 3mph /  4.8km/h 55% 0in /  0.0mm 0 W/m2
03:25 64.6 °F /  18.1 °C 48 °F /  8.9 °C 30.1in /  1020.3hPa North 0.9mph /  1.4km/h 5mph /  8km/h 55% 0in /  0.0mm 0 W/m2
03:30 64.6 °F /  18.1 °C 48 °F /  8.9 °C 30.1in /  1020.3hPa Calm   1mph /  1.6km/h 55% 0in /  0.0mm 0 W/m2
03:35 64.4 °F /  18 °C 48.4 °F /  9.1 °C 30.1in /  1020.3hPa Calm   3mph /  4.8km/h 56% 0in /  0.0mm 0 W/m2
03:40 64 °F /  17.8 °C 48 °F /  8.9 °C 30.1in /  1020.3hPa WSW 2mph /  3.2km/h 2mph /  3.2km/h 56% 0in /  0.0mm 0 W/m2
03:45 64 °F /  17.8 °C 48 °F /  8.9 °C 30.1in /  1020.3hPa Calm   2mph /  3.2km/h 56% 0in /  0.0mm 0 W/m2
03:50 63.9 °F /  17.7 °C 48.4 °F /  9.1 °C 30.1in /  1020.3hPa West 0.9mph /  1.4km/h 2mph /  3.2km/h 57% 0in /  0.0mm 0 W/m2
03:55 63.7 °F /  17.6 °C 48.2 °F /  9 °C 30.1in /  1020.3hPa WSW 0.9mph /  1.4km/h 2mph /  3.2km/h 57% 0in /  0.0mm 0 W/m2
04:00 63.5 °F /  17.5 °C 48 °F /  8.9 °C 30.1in /  1020.3hPa WSW 2.9mph /  4.7km/h 3mph /  4.8km/h 57% 0in /  0.0mm 0 W/m2
04:05 63.5 °F /  17.5 °C 48 °F /  8.9 °C 30.1in /  1020.3hPa WSW 2mph /  3.2km/h 3mph /  4.8km/h 57% 0in /  0.0mm 0 W/m2
04:10 63.3 °F /  17.4 °C 48.4 °F /  9.1 °C 30.1in /  1020.3hPa WSW 0.9mph /  1.4km/h 2mph /  3.2km/h 58% 0in /  0.0mm 0 W/m2
04:15 63.3 °F /  17.4 °C 48.4 °F /  9.1 °C 30.1in /  1020.3hPa Calm   3mph /  4.8km/h 58% 0in /  0.0mm 0 W/m2
04:20 63.3 °F /  17.4 °C 48.4 °F /  9.1 °C 30.1in /  1020.3hPa WSW 0.9mph /  1.4km/h 3mph /  4.8km/h 58% 0in /  0.0mm 0 W/m2
04:25 63.1 °F /  17.3 °C 48.2 °F /  9 °C 30.1in /  1020.3hPa WSW 0.9mph /  1.4km/h 1mph /  1.6km/h 58% 0in /  0.0mm 0 W/m2
04:30 63 °F /  17.2 °C 48.4 °F /  9.1 °C 30.1in /  1020.3hPa WSW 2mph /  3.2km/h 2mph /  3.2km/h 59% 0in /  0.0mm 0 W/m2
04:35 63 °F /  17.2 °C 48.4 °F /  9.1 °C 30.1in /  1020.3hPa SW 0.9mph /  1.4km/h 1mph /  1.6km/h 59% 0in /  0.0mm 0 W/m2
04:40 62.8 °F /  17.1 °C 48.2 °F /  9 °C 30.1in /  1020.3hPa Calm   3mph /  4.8km/h 59% 0in /  0.0mm 0 W/m2
04:45 62.8 °F /  17.1 °C 48.7 °F /  9.3 °C 30.1in /  1020.3hPa SSW 2mph /  3.2km/h 2mph /  3.2km/h 60% 0in /  0.0mm 0 W/m2
04:50 62.8 °F /  17.1 °C 48.2 °F /  9 °C 30.1in /  1020.0hPa Calm   1mph /  1.6km/h 59% 0in /  0.0mm 0 W/m2
04:55 63 °F /  17.2 °C 48.4 °F /  9.1 °C 30.1in /  1020.0hPa WNW 2.9mph /  4.7km/h 7mph /  11.3km/h 59% 0in /  0.0mm 0 W/m2
05:00 63 °F /  17.2 °C 48.4 °F /  9.1 °C 30.1in /  1020.0hPa WNW 2mph /  3.2km/h 2mph /  3.2km/h 59% 0in /  0.0mm 0 W/m2
05:05 63 °F /  17.2 °C 48 °F /  8.9 °C 30.1in /  1020.0hPa WNW 2mph /  3.2km/h 7mph /  11.3km/h 58% 0in /  0.0mm 0 W/m2
05:10 63 °F /  17.2 °C 48 °F /  8.9 °C 30.1in /  1020.0hPa West 2mph /  3.2km/h 2mph /  3.2km/h 58% 0in /  0.0mm 0 W/m2
05:15 62.8 °F /  17.1 °C 48.2 °F /  9 °C 30.1in /  1020.0hPa Calm   2mph /  3.2km/h 59% 0in /  0.0mm 0 W/m2
05:20 62.4 °F /  16.9 °C 48.4 °F /  9.1 °C 30.1in /  1020.0hPa WSW 2.9mph /  4.7km/h 3mph /  4.8km/h 60% 0in /  0.0mm 0 W/m2
05:25 62.4 °F /  16.9 °C 48.4 °F /  9.1 °C 30.1in /  1020.0hPa WNW 2mph /  3.2km/h 3mph /  4.8km/h 60% 0in /  0.0mm 0 W/m2
05:30 62.4 °F /  16.9 °C 47.8 °F /  8.8 °C 30.1in /  1020.0hPa WNW 2.9mph /  4.7km/h 4mph /  6.4km/h 59% 0in /  0.0mm 0 W/m2
05:35 62.6 °F /  17 °C 48 °F /  8.9 °C 30.1in /  1020.3hPa West 2mph /  3.2km/h 3mph /  4.8km/h 59% 0in /  0.0mm 0 W/m2
05:40 62.4 °F /  16.9 °C 47.8 °F /  8.8 °C 30.1in /  1020.3hPa West 2mph /  3.2km/h 4mph /  6.4km/h 59% 0in /  0.0mm 0 W/m2
05:45 62.6 °F /  17 °C 48 °F /  8.9 °C 30.1in /  1020.3hPa West 2mph /  3.2km/h 2mph /  3.2km/h 59% 0in /  0.0mm 0 W/m2
05:50 62.4 °F /  16.9 °C 47.8 °F /  8.8 °C 30.1in /  1020.3hPa West 0.9mph /  1.4km/h 3mph /  4.8km/h 59% 0in /  0.0mm 0 W/m2
05:55 62.4 °F /  16.9 °C 48.4 °F /  9.1 °C 30.1in /  1020.3hPa West 2.9mph /  4.7km/h 4mph /  6.4km/h 60% 0in /  0.0mm 0 W/m2
06:00 62.2 °F /  16.8 °C 48.2 °F /  9 °C 30.1in /  1020.3hPa WNW 2mph /  3.2km/h 2mph /  3.2km/h 60% 0in /  0.0mm 0 W/m2
06:05 62.2 °F /  16.8 °C 47.7 °F /  8.7 °C 30.1in /  1020.3hPa WNW 2mph /  3.2km/h 3mph /  4.8km/h 59% 0in /  0.0mm 0 W/m2
06:10 62.4 °F /  16.9 °C 47.8 °F /  8.8 °C 30.1in /  1020.3hPa West 0.9mph /  1.4km/h 6mph /  9.7km/h 59% 0in /  0.0mm 0 W/m2
06:15 62.4 °F /  16.9 °C 47.8 °F /  8.8 °C 30.1in /  1020.3hPa West 2mph /  3.2km/h 3mph /  4.8km/h 59% 0in /  0.0mm 0 W/m2
06:20 62.4 °F /  16.9 °C 47.8 °F /  8.8 °C 30.1in /  1020.3hPa West 0.9mph /  1.4km/h 6mph /  9.7km/h 59% 0in /  0.0mm 5 W/m2
06:25 62.4 °F /  16.9 °C 47.8 °F /  8.8 °C 30.1in /  1020.7hPa West 0.9mph /  1.4km/h 6mph /  9.7km/h 59% 0in /  0.0mm 7 W/m2
06:30 62.4 °F /  16.9 °C 47.8 °F /  8.8 °C 30.1in /  1020.3hPa SW 2mph /  3.2km/h 2mph /  3.2km/h 59% 0in /  0.0mm 9 W/m2
06:35 62.4 °F /  16.9 °C 47.8 °F /  8.8 °C 30.1in /  1020.7hPa Calm   2mph /  3.2km/h 59% 0in /  0.0mm 11 W/m2
06:40 62.2 °F /  16.8 °C 48.2 °F /  9 °C 30.1in /  1020.7hPa West 2mph /  3.2km/h 4mph /  6.4km/h 60% 0in /  0.0mm 12 W/m2
06:45 62.2 °F /  16.8 °C 47.7 °F /  8.7 °C 30.1in /  1020.7hPa WNW 2mph /  3.2km/h 3mph /  4.8km/h 59% 0in /  0.0mm 16 W/m2
06:50 62.4 °F /  16.9 °C 47.8 °F /  8.8 °C 30.1in /  1020.7hPa West 2mph /  3.2km/h 4mph /  6.4km/h 59% 0in /  0.0mm 18 W/m2
06:55 62.6 °F /  17 °C 48 °F /  8.9 °C 30.1in /  1020.7hPa West 0.9mph /  1.4km/h 2mph /  3.2km/h 59% 0in /  0.0mm 19 W/m2
07:00 62.6 °F /  17 °C 48 °F /  8.9 °C 30.1in /  1020.7hPa West 0.9mph /  1.4km/h 3mph /  4.8km/h 59% 0in /  0.0mm 19 W/m2
07:05 62.8 °F /  17.1 °C 48.2 °F /  9 °C 30.1in /  1020.7hPa Calm   3mph /  4.8km/h 59% 0in /  0.0mm 21 W/m2
07:10 62.8 °F /  17.1 °C 48.2 °F /  9 °C 30.1in /  1020.7hPa West 2mph /  3.2km/h 4mph /  6.4km/h 59% 0in /  0.0mm 23 W/m2
07:15 62.8 °F /  17.1 °C 48.2 °F /  9 °C 30.1in /  1020.7hPa NW 2mph /  3.2km/h 4mph /  6.4km/h 59% 0in /  0.0mm 25 W/m2
07:21 63 °F /  17.2 °C 48.4 °F /  9.1 °C 30.1in /  1020.7hPa NW 0.9mph /  1.4km/h 1mph /  1.6km/h 59% 0in /  0.0mm 25 W/m2
07:26 63 °F /  17.2 °C 48.4 °F /  9.1 °C 30.1in /  1020.7hPa SSW 0.9mph /  1.4km/h 1mph /  1.6km/h 59% 0in /  0.0mm 26 W/m2
07:31 63 °F /  17.2 °C 48.4 °F /  9.1 °C 30.2in /  1021.0hPa West 0.9mph /  1.4km/h 3mph /  4.8km/h 59% 0in /  0.0mm 88 W/m2
07:36 63.3 °F /  17.4 °C 48.7 °F /  9.3 °C 30.2in /  1021.0hPa NNW 2mph /  3.2km/h 3mph /  4.8km/h 59% 0in /  0.0mm 100 W/m2
07:41 63.7 °F /  17.6 °C 48.6 °F /  9.2 °C 30.2in /  1021.0hPa West 4mph /  6.4km/h 7mph /  11.3km/h 58% 0in /  0.0mm 113 W/m2
07:46 63.9 °F /  17.7 °C 48.7 °F /  9.3 °C 30.2in /  1021.0hPa NNW 0.9mph /  1.4km/h 3mph /  4.8km/h 58% 0in /  0.0mm 130 W/m2
07:51 64.2 °F /  17.9 °C 48.7 °F /  9.3 °C 30.2in /  1021.0hPa West 2.9mph /  4.7km/h 7mph /  11.3km/h 57% 0in /  0.0mm 144 W/m2
07:56 64.4 °F /  18 °C 48.9 °F /  9.4 °C 30.2in /  1021.0hPa West 0.9mph /  1.4km/h 4mph /  6.4km/h 57% 0in /  0.0mm 162 W/m2
08:01 64.6 °F /  18.1 °C 48.6 °F /  9.2 °C 30.2in /  1021.0hPa NNW 2mph /  3.2km/h 4mph /  6.4km/h 56% 0in /  0.0mm 179 W/m2
08:06 64.8 °F /  18.2 °C 48.7 °F /  9.3 °C 30.2in /  1021.0hPa North 2mph /  3.2km/h 4mph /  6.4km/h 56% 0in /  0.0mm 193 W/m2
08:11 65.3 °F /  18.5 °C 49.3 °F /  9.6 °C 30.2in /  1021.0hPa North 0.9mph /  1.4km/h 3mph /  4.8km/h 56% 0in /  0.0mm 209 W/m2
08:16 65.7 °F /  18.7 °C 49.1 °F /  9.5 °C 30.2in /  1021.3hPa NNW 2.9mph /  4.7km/h 5mph /  8km/h 55% 0in /  0.0mm 197 W/m2
08:21 65.5 °F /  18.6 °C 48.9 °F /  9.4 °C 30.2in /  1021.3hPa NW 0.9mph /  1.4km/h 5mph /  8km/h 55% 0in /  0.0mm 118 W/m2
08:26 65.7 °F /  18.7 °C 49.1 °F /  9.5 °C 30.2in /  1021.3hPa NNW 2.9mph /  4.7km/h 4mph /  6.4km/h 55% 0in /  0.0mm 44 W/m2
08:31 65.8 °F /  18.8 °C 49.3 °F /  9.6 °C 30.2in /  1021.3hPa West 2mph /  3.2km/h 4mph /  6.4km/h 55% 0in /  0.0mm 39 W/m2
08:36 65.8 °F /  18.8 °C 49.3 °F /  9.6 °C 30.2in /  1021.3hPa WNW 2.9mph /  4.7km/h 4mph /  6.4km/h 55% 0in /  0.0mm 39 W/m2
08:41 65.8 °F /  18.8 °C 49.3 °F /  9.6 °C 30.2in /  1021.3hPa WNW 4mph /  6.4km/h 6mph /  9.7km/h 55% 0in /  0.0mm 39 W/m2
08:46 66 °F /  18.9 °C 49.8 °F /  9.9 °C 30.2in /  1021.3hPa North 0.9mph /  1.4km/h 2mph /  3.2km/h 56% 0in /  0.0mm 39 W/m2
08:51 66.6 °F /  19.2 °C 49.8 °F /  9.9 °C 30.2in /  1021.3hPa ESE 2mph /  3.2km/h 6mph /  9.7km/h 55% 0in /  0.0mm 39 W/m2
08:56 66.9 °F /  19.4 °C 49.8 °F /  9.9 °C 30.2in /  1021.3hPa Calm   3mph /  4.8km/h 54% 0in /  0.0mm 39 W/m2
09:01 66.9 °F /  19.4 °C 49.8 °F /  9.9 °C 30.2in /  1021.3hPa NW 2.9mph /  4.7km/h 4mph /  6.4km/h 54% 0in /  0.0mm 39 W/m2
09:06 67.1 °F /  19.5 °C 50.4 °F /  10.2 °C 30.2in /  1021.3hPa WNW 0.9mph /  1.4km/h 5mph /  8km/h 55% 0in /  0.0mm 40 W/m2
09:11 67.3 °F /  19.6 °C 50.5 °F /  10.3 °C 30.2in /  1021.3hPa WNW 2mph /  3.2km/h 4mph /  6.4km/h 55% 0in /  0.0mm 39 W/m2
09:16 67.5 °F /  19.7 °C 50.2 °F /  10.1 °C 30.2in /  1021.3hPa NW 2.9mph /  4.7km/h 5mph /  8km/h 54% 0in /  0.0mm 39 W/m2
09:21 67.8 °F /  19.9 °C 50 °F /  10 °C 30.2in /  1021.3hPa North 2.9mph /  4.7km/h 6mph /  9.7km/h 53% 0in /  0.0mm 40 W/m2
09:26 68 °F /  20 °C 50.2 °F /  10.1 °C 30.2in /  1021.3hPa NNW 2mph /  3.2km/h 4mph /  6.4km/h 53% 0in /  0.0mm 42 W/m2
09:31 68.4 °F /  20.2 °C 50.5 °F /  10.3 °C 30.2in /  1021.3hPa WNW 4mph /  6.4km/h 6mph /  9.7km/h 53% 0in /  0.0mm 42 W/m2
09:36 68.7 °F /  20.4 °C 50.4 °F /  10.2 °C 30.2in /  1021.3hPa NW 2mph /  3.2km/h 4mph /  6.4km/h 52% 0in /  0.0mm 42 W/m2
09:41 69.3 °F /  20.7 °C 50.9 °F /  10.5 °C 30.2in /  1021.3hPa East 2mph /  3.2km/h 4mph /  6.4km/h 52% 0in /  0.0mm 42 W/m2
09:46 69.6 °F /  20.9 °C 50.2 °F /  10.1 °C 30.2in /  1021.3hPa ENE 0.9mph /  1.4km/h 7mph /  11.3km/h 50% 0in /  0.0mm 44 W/m2
09:51 70.2 °F /  21.2 °C 50.7 °F /  10.4 °C 30.2in /  1021.3hPa West 4mph /  6.4km/h 8mph /  12.9km/h 50% 0in /  0.0mm 42 W/m2
09:56 70.5 °F /  21.4 °C 50.9 °F /  10.5 °C 30.2in /  1021.7hPa ENE 2mph /  3.2km/h 3mph /  4.8km/h 50% 0in /  0.0mm 44 W/m2
10:01 71.1 °F /  21.7 °C 50.9 °F /  10.5 °C 30.2in /  1021.7hPa NNW 0.9mph /  1.4km/h 8mph /  12.9km/h 49% 0in /  0.0mm 49 W/m2
10:06 71.4 °F /  21.9 °C 50.7 °F /  10.4 °C 30.2in /  1021.7hPa NNW 2.9mph /  4.7km/h 4mph /  6.4km/h 48% 0in /  0.0mm 53 W/m2
10:11 72 °F /  22.2 °C 50.7 °F /  10.4 °C 30.2in /  1021.7hPa Calm   4mph /  6.4km/h 47% 0in /  0.0mm 176 W/m2
10:16 72 °F /  22.2 °C 50.7 °F /  10.4 °C 30.2in /  1021.7hPa NW 0.9mph /  1.4km/h 3mph /  4.8km/h 47% 0in /  0.0mm 399 W/m2
10:21 72.3 °F /  22.4 °C 50.9 °F /  10.5 °C 30.2in /  1021.7hPa WNW 2mph /  3.2km/h 3mph /  4.8km/h 47% 0in /  0.0mm 543 W/m2
10:26 73 °F /  22.8 °C 51.1 °F /  10.6 °C 30.2in /  1021.7hPa NNW 6mph /  9.7km/h 7mph /  11.3km/h 46% 0in /  0.0mm 575 W/m2
10:31 73.2 °F /  22.9 °C 50.5 °F /  10.3 °C 30.2in /  1021.7hPa ENE 2mph /  3.2km/h 4mph /  6.4km/h 45% 0in /  0.0mm 584 W/m2
10:36 73.8 °F /  23.2 °C 51.1 °F /  10.6 °C 30.2in /  1021.7hPa NNE 2.9mph /  4.7km/h 9mph /  14.5km/h 45% 0in /  0.0mm 613 W/m2
10:41 73.8 °F /  23.2 °C 51.1 °F /  10.6 °C 30.2in /  1021.7hPa North 4.9mph /  7.9km/h 8mph /  12.9km/h 45% 0in /  0.0mm 622 W/m2
10:46 73.9 °F /  23.3 °C 50.7 °F /  10.4 °C 30.2in /  1021.7hPa WNW 0.9mph /  1.4km/h 5mph /  8km/h 44% 0in /  0.0mm 636 W/m2
10:51 74.5 °F /  23.6 °C 51.8 °F /  11 °C 30.2in /  1021.7hPa East 8.9mph /  14.3km/h 10mph /  16.1km/h 45% 0in /  0.0mm 652 W/m2
10:56 74.8 °F /  23.8 °C 50.2 °F /  10.1 °C 30.2in /  1021.7hPa NNW 4.9mph /  7.9km/h 8mph /  12.9km/h 42% 0in /  0.0mm 512 W/m2
11:01 74.7 °F /  23.7 °C 50.7 °F /  10.4 °C 30.2in /  1021.7hPa East 6mph /  9.7km/h 8mph /  12.9km/h 43% 0in /  0.0mm 566 W/m2
11:06 74.8 °F /  23.8 °C 50.9 °F /  10.5 °C 30.2in /  1021.7hPa NW 2.9mph /  4.7km/h 8mph /  12.9km/h 43% 0in /  0.0mm 612 W/m2
11:11 75.4 °F /  24.1 °C 50.7 °F /  10.4 °C 30.2in /  1021.7hPa SW 2mph /  3.2km/h 8mph /  12.9km/h 42% 0in /  0.0mm 656 W/m2
11:16 76.3 °F /  24.6 °C 50.9 °F /  10.5 °C 30.2in /  1021.7hPa ESE 4.9mph /  7.9km/h 12mph /  19.3km/h 41% 0in /  0.0mm 710 W/m2
11:21 76.5 °F /  24.7 °C 50.4 °F /  10.2 °C 30.2in /  1021.7hPa NNW 2.9mph /  4.7km/h 6mph /  9.7km/h 40% 0in /  0.0mm 682 W/m2
11:26 76.6 °F /  24.8 °C 50.5 °F /  10.3 °C 30.2in /  1021.3hPa NE 0.9mph /  1.4km/h 12mph /  19.3km/h 40% 0in /  0.0mm 687 W/m2
11:31 77.5 °F /  25.3 °C 50.5 °F /  10.3 °C 30.2in /  1021.3hPa West 6.9mph /  11.1km/h 11mph /  17.7km/h 39% 0in /  0.0mm 693 W/m2
11:36 77.5 °F /  25.3 °C 50 °F /  10 °C 30.2in /  1021.3hPa NNE 4.9mph /  7.9km/h 11mph /  17.7km/h 38% 0in /  0.0mm 652 W/m2
11:41 77.5 °F /  25.3 °C 49.3 °F /  9.6 °C 30.2in /  1021.3hPa East 8.9mph /  14.3km/h 11mph /  17.7km/h 37% 0in /  0.0mm 700 W/m2
11:46 77.7 °F /  25.4 °C 49.5 °F /  9.7 °C 30.2in /  1021.3hPa ENE 2.9mph /  4.7km/h 8mph /  12.9km/h 37% 0in /  0.0mm 708 W/m2
11:51 78.1 °F /  25.6 °C 49.6 °F /  9.8 °C 30.2in /  1021.3hPa SSW 2.9mph /  4.7km/h 10mph /  16.1km/h 37% 0in /  0.0mm 684 W/m2
11:56 78.4 °F /  25.8 °C 49.3 °F /  9.6 °C 30.2in /  1021.3hPa NW 2.9mph /  4.7km/h 5mph /  8km/h 36% 0in /  0.0mm 666 W/m2
12:01 78.4 °F /  25.8 °C 49.3 °F /  9.6 °C 30.2in /  1021.3hPa NNW 4mph /  6.4km/h 8mph /  12.9km/h 36% 0in /  0.0mm 633 W/m2
12:06 78.3 °F /  25.7 °C 49.1 °F /  9.5 °C 30.2in /  1021.3hPa NE 2.9mph /  4.7km/h 5mph /  8km/h 36% 0in /  0.0mm 635 W/m2
12:11 78.4 °F /  25.8 °C 49.3 °F /  9.6 °C 30.2in /  1021.3hPa NE 4mph /  6.4km/h 9mph /  14.5km/h 36% 0in /  0.0mm 742 W/m2
12:16 79 °F /  26.1 °C 49.8 °F /  9.9 °C 30.2in /  1021.3hPa East 8.9mph /  14.3km/h 9mph /  14.5km/h 36% 0in /  0.0mm 726 W/m2
12:21 79.3 °F /  26.3 °C 50 °F /  10 °C 30.2in /  1021.3hPa ESE 4mph /  6.4km/h 8mph /  12.9km/h 36% 0in /  0.0mm 761 W/m2
12:26 79.5 °F /  26.4 °C 49.5 °F /  9.7 °C 30.2in /  1021.3hPa East 6mph /  9.7km/h 8mph /  12.9km/h 35% 0in /  0.0mm 775 W/m2
12:31 80.1 °F /  26.7 °C 49.1 °F /  9.5 °C 30.2in /  1021.0hPa East 6.9mph /  11.1km/h 15mph /  24.1km/h 34% 0in /  0.0mm 777 W/m2
12:36 80.1 °F /  26.7 °C 50 °F /  10 °C 30.2in /  1021.0hPa NE 2.9mph /  4.7km/h 3mph /  4.8km/h 35% 0in /  0.0mm 786 W/m2
12:41 80.2 °F /  26.8 °C 50.2 °F /  10.1 °C 30.2in /  1021.0hPa NNW 0.9mph /  1.4km/h 4mph /  6.4km/h 35% 0in /  0.0mm 814 W/m2
12:46 80.4 °F /  26.9 °C 49.5 °F /  9.7 °C 30.2in /  1021.0hPa NNW 2mph /  3.2km/h 5mph /  8km/h 34% 0in /  0.0mm 773 W/m2
12:51 80.8 °F /  27.1 °C 50.5 °F /  10.3 °C 30.2in /  1021.0hPa ENE 2mph /  3.2km/h 5mph /  8km/h 35% 0in /  0.0mm 786 W/m2
12:56 81.1 °F /  27.3 °C 49.3 °F /  9.6 °C 30.2in /  1021.0hPa SE 2mph /  3.2km/h 5mph /  8km/h 33% 0in /  0.0mm 821 W/m2
13:01 81.7 °F /  27.6 °C 49.8 °F /  9.9 °C 30.2in /  1021.0hPa NNW 2mph /  3.2km/h 9mph /  14.5km/h 33% 0in /  0.0mm 726 W/m2
13:06 81.9 °F /  27.7 °C 50 °F /  10 °C 30.1in /  1020.7hPa ENE 4mph /  6.4km/h 12mph /  19.3km/h 33% 0in /  0.0mm 807 W/m2
13:11 81.5 °F /  27.5 °C 50.4 °F /  10.2 °C 30.1in /  1020.7hPa East 6.9mph /  11.1km/h 7mph /  11.3km/h 34% 0in /  0.0mm 809 W/m2
13:16 81.7 °F /  27.6 °C 49.8 °F /  9.9 °C 30.1in /  1020.7hPa NNW 2.9mph /  4.7km/h 12mph /  19.3km/h 33% 0in /  0.0mm 826 W/m2
13:21 81.9 °F /  27.7 °C 50 °F /  10 °C 30.1in /  1020.7hPa North 2.9mph /  4.7km/h 5mph /  8km/h 33% 0in /  0.0mm 823 W/m2
13:26 82 °F /  27.8 °C 50.2 °F /  10.1 °C 30.1in /  1020.7hPa SW 2mph /  3.2km/h 9mph /  14.5km/h 33% 0in /  0.0mm 810 W/m2
13:31 82.2 °F /  27.9 °C 49.5 °F /  9.7 °C 30.1in /  1020.7hPa WNW 0.9mph /  1.4km/h 8mph /  12.9km/h 32% 0in /  0.0mm 826 W/m2
13:35 81.9 °F /  27.7 °C 50 °F /  10 °C 30.1in /  1020.7hPa NNE 2.9mph /  4.7km/h 11mph /  17.7km/h 33% 0in /  0.0mm 846 W/m2
13:40 82 °F /  27.8 °C 50.9 °F /  10.5 °C 30.1in /  1020.7hPa NE 6.9mph /  11.1km/h 9mph /  14.5km/h 34% 0in /  0.0mm 831 W/m2
13:45 82 °F /  27.8 °C 49.3 °F /  9.6 °C 30.1in /  1020.7hPa NNE 2mph /  3.2km/h 4mph /  6.4km/h 32% 0in /  0.0mm 833 W/m2
13:50 82 °F /  27.8 °C 49.3 °F /  9.6 °C 30.1in /  1020.7hPa Calm   9mph /  14.5km/h 32% 0in /  0.0mm 809 W/m2
13:56 82.2 °F /  27.9 °C 49.5 °F /  9.7 °C 30.1in /  1020.7hPa ESE 2.9mph /  4.7km/h 8mph /  12.9km/h 32% 0in /  0.0mm 816 W/m2
14:01 82.6 °F /  28.1 °C 50.5 °F /  10.3 °C 30.1in /  1020.7hPa NE 0.9mph /  1.4km/h 4mph /  6.4km/h 33% 0in /  0.0mm 833 W/m2
14:06 82.8 °F /  28.2 °C 49.8 °F /  9.9 °C 30.1in /  1020.7hPa West 2mph /  3.2km/h 4mph /  6.4km/h 32% 0in /  0.0mm 831 W/m2
14:11 82.8 °F /  28.2 °C 49.8 °F /  9.9 °C 30.1in /  1020.7hPa East 2.9mph /  4.7km/h 10mph /  16.1km/h 32% 0in /  0.0mm 796 W/m2
14:16 82.9 °F /  28.3 °C 49.3 °F /  9.6 °C 30.1in /  1020.3hPa NNW 4.9mph /  7.9km/h 8mph /  12.9km/h 31% 0in /  0.0mm 835 W/m2
14:21 82.9 °F /  28.3 °C 49.3 °F /  9.6 °C 30.1in /  1020.7hPa NNE 6.9mph /  11.1km/h 10mph /  16.1km/h 31% 0in /  0.0mm 824 W/m2
14:26 82.8 °F /  28.2 °C 49.8 °F /  9.9 °C 30.1in /  1020.3hPa SSE 2.9mph /  4.7km/h 5mph /  8km/h 32% 0in /  0.0mm 844 W/m2
14:31 82.8 °F /  28.2 °C 49.8 °F /  9.9 °C 30.1in /  1020.3hPa East 2.9mph /  4.7km/h 10mph /  16.1km/h 32% 0in /  0.0mm 840 W/m2
14:36 83.1 °F /  28.4 °C 50.2 °F /  10.1 °C 30.1in /  1020.3hPa ESE 2mph /  3.2km/h 8mph /  12.9km/h 32% 0in /  0.0mm 838 W/m2
14:41 83.3 °F /  28.5 °C 49.5 °F /  9.7 °C 30.1in /  1020.3hPa ENE 0.9mph /  1.4km/h 10mph /  16.1km/h 31% 0in /  0.0mm 838 W/m2
14:46 83.7 °F /  28.7 °C 49.8 °F /  9.9 °C 30.1in /  1020.3hPa ESE 2.9mph /  4.7km/h 5mph /  8km/h 31% 0in /  0.0mm 835 W/m2
14:51 83.5 °F /  28.6 °C 49.6 °F /  9.8 °C 30.1in /  1020.3hPa NNW 2.9mph /  4.7km/h 6mph /  9.7km/h 31% 0in /  0.0mm 831 W/m2
14:56 83.5 °F /  28.6 °C 49.6 °F /  9.8 °C 30.1in /  1020.3hPa ENE 2mph /  3.2km/h 4mph /  6.4km/h 31% 0in /  0.0mm 830 W/m2
15:01 83.7 °F /  28.7 °C 49.8 °F /  9.9 °C 30.1in /  1020.0hPa ESE 6mph /  9.7km/h 6mph /  9.7km/h 31% 0in /  0.0mm 831 W/m2
15:06 84 °F /  28.9 °C 50.2 °F /  10.1 °C 30.1in /  1020.3hPa East 2.9mph /  4.7km/h 8mph /  12.9km/h 31% 0in /  0.0mm 831 W/m2
15:11 84 °F /  28.9 °C 50.2 °F /  10.1 °C 30.1in /  1020.3hPa ESE 6mph /  9.7km/h 9mph /  14.5km/h 31% 0in /  0.0mm 816 W/m2
15:16 84 °F /  28.9 °C 50.2 °F /  10.1 °C 30.1in /  1020.0hPa NNE 0.9mph /  1.4km/h 4mph /  6.4km/h 31% 0in /  0.0mm 814 W/m2
15:21 84.2 °F /  29 °C 50.4 °F /  10.2 °C 30.1in /  1020.0hPa North 4mph /  6.4km/h 6mph /  9.7km/h 31% 0in /  0.0mm 810 W/m2
15:26 84.6 °F /  29.2 °C 50.5 °F /  10.3 °C 30.1in /  1020.0hPa SE 0.9mph /  1.4km/h 4mph /  6.4km/h 31% 0in /  0.0mm 788 W/m2
15:31 84.9 °F /  29.4 °C 50 °F /  10 °C 30.1in /  1020.0hPa NNW 0.9mph /  1.4km/h 9mph /  14.5km/h 30% 0in /  0.0mm 784 W/m2
15:36 84.9 °F /  29.4 °C 50 °F /  10 °C 30.1in /  1020.0hPa NNW 4mph /  6.4km/h 9mph /  14.5km/h 30% 0in /  0.0mm 786 W/m2
15:41 84.7 °F /  29.3 °C 49.8 °F /  9.9 °C 30.1in /  1020.0hPa ENE 0.9mph /  1.4km/h 6mph /  9.7km/h 30% 0in /  0.0mm 780 W/m2
15:46 84.9 °F /  29.4 °C 50 °F /  10 °C 30.1in /  1020.0hPa Calm   7mph /  11.3km/h 30% 0in /  0.0mm 768 W/m2
15:51 85.3 °F /  29.6 °C 50.4 °F /  10.2 °C 30.1in /  1020.0hPa NW 2mph /  3.2km/h 3mph /  4.8km/h 30% 0in /  0.0mm 759 W/m2
15:56 85.5 °F /  29.7 °C 49.6 °F /  9.8 °C 30.1in /  1019.6hPa Calm   5mph /  8km/h 29% 0in /  0.0mm 754 W/m2
16:01 85.3 °F /  29.6 °C 50.4 °F /  10.2 °C 30.1in /  1019.6hPa WNW 4mph /  6.4km/h 5mph /  8km/h 30% 0in /  0.0mm 745 W/m2
16:06 85.5 °F /  29.7 °C 50.5 °F /  10.3 °C 30.1in /  1019.6hPa Calm   4mph /  6.4km/h 30% 0in /  0.0mm 737 W/m2
16:11 85.6 °F /  29.8 °C 50.7 °F /  10.4 °C 30.1in /  1019.6hPa NNW 2.9mph /  4.7km/h 5mph /  8km/h 30% 0in /  0.0mm 726 W/m2
16:16 85.6 °F /  29.8 °C 50.7 °F /  10.4 °C 30.1in /  1019.6hPa NE 0.9mph /  1.4km/h 3mph /  4.8km/h 30% 0in /  0.0mm 719 W/m2
16:21 85.8 °F /  29.9 °C 49.8 °F /  9.9 °C 30.1in /  1019.6hPa NE 2.9mph /  4.7km/h 7mph /  11.3km/h 29% 0in /  0.0mm 691 W/m2
16:26 85.6 °F /  29.8 °C 49.8 °F /  9.9 °C 30.1in /  1019.6hPa ESE 2mph /  3.2km/h 8mph /  12.9km/h 29% 0in /  0.0mm 691 W/m2
16:31 85.8 °F /  29.9 °C 50.7 °F /  10.4 °C 30.1in /  1019.6hPa NE 4.9mph /  7.9km/h 10mph /  16.1km/h 30% 0in /  0.0mm 686 W/m2
16:36 85.8 °F /  29.9 °C 49.8 °F /  9.9 °C 30.1in /  1019.6hPa ESE 2mph /  3.2km/h 7mph /  11.3km/h 29% 0in /  0.0mm 670 W/m2
16:41 85.6 °F /  29.8 °C 49.8 °F /  9.9 °C 30.1in /  1019.6hPa NW 2mph /  3.2km/h 9mph /  14.5km/h 29% 0in /  0.0mm 663 W/m2
16:46 85.3 °F /  29.6 °C 49.5 °F /  9.7 °C 30.1in /  1019.6hPa NW 2mph /  3.2km/h 14mph /  22.5km/h 29% 0in /  0.0mm 650 W/m2
16:51 85.8 °F /  29.9 °C 49.8 °F /  9.9 °C 30.1in /  1019.6hPa ENE 2mph /  3.2km/h 4mph /  6.4km/h 29% 0in /  0.0mm 649 W/m2
16:56 86.2 °F /  30.1 °C 50.2 °F /  10.1 °C 30.1in /  1019.6hPa SE 4mph /  6.4km/h 14mph /  22.5km/h 29% 0in /  0.0mm 640 W/m2
17:01 86.4 °F /  30.2 °C 50.4 °F /  10.2 °C 30.1in /  1019.6hPa NNW 2mph /  3.2km/h 4mph /  6.4km/h 29% 0in /  0.0mm 629 W/m2
17:06 87.1 °F /  30.6 °C 50 °F /  10 °C 30.1in /  1019.6hPa ENE 2mph /  3.2km/h 5mph /  8km/h 28% 0in /  0.0mm 612 W/m2
17:11 87.1 °F /  30.6 °C 50.9 °F /  10.5 °C 30.1in /  1019.6hPa SE 4mph /  6.4km/h 9mph /  14.5km/h 29% 0in /  0.0mm 601 W/m2
17:16 86.5 °F /  30.3 °C 50.5 °F /  10.3 °C 30.1in /  1019.6hPa East 2.9mph /  4.7km/h 3mph /  4.8km/h 29% 0in /  0.0mm 566 W/m2
17:21 86.5 °F /  30.3 °C 50.5 °F /  10.3 °C 30.1in /  1019.6hPa NNW 2mph /  3.2km/h 8mph /  12.9km/h 29% 0in /  0.0mm 545 W/m2
17:26 86.4 °F /  30.2 °C 50.4 °F /  10.2 °C 30.1in /  1019.6hPa NNW 4mph /  6.4km/h 7mph /  11.3km/h 29% 0in /  0.0mm 555 W/m2
17:31 86.5 °F /  30.3 °C 50.5 °F /  10.3 °C 30.1in /  1019.6hPa ENE 0.9mph /  1.4km/h 4mph /  6.4km/h 29% 0in /  0.0mm 548 W/m2
17:36 86.5 °F /  30.3 °C 49.6 °F /  9.8 °C 30.1in /  1019.6hPa SSE 0.9mph /  1.4km/h 8mph /  12.9km/h 28% 0in /  0.0mm 536 W/m2
17:41 86.2 °F /  30.1 °C 49.3 °F /  9.6 °C 30.1in /  1019.6hPa ENE 4mph /  6.4km/h 9mph /  14.5km/h 28% 0in /  0.0mm 522 W/m2
17:46 85.8 °F /  29.9 °C 49.8 °F /  9.9 °C 30.1in /  1019.6hPa NNW 4.9mph /  7.9km/h 6mph /  9.7km/h 29% 0in /  0.0mm 510 W/m2
17:51 86.2 °F /  30.1 °C 49.3 °F /  9.6 °C 30.1in /  1019.6hPa NNW 2.9mph /  4.7km/h 9mph /  14.5km/h 28% 0in /  0.0mm 492 W/m2
17:56 86.4 °F /  30.2 °C 49.5 °F /  9.7 °C 30.1in /  1019.6hPa West 6mph /  9.7km/h 7mph /  11.3km/h 28% 0in /  0.0mm 482 W/m2
18:01 86.4 °F /  30.2 °C 49.5 °F /  9.7 °C 30.1in /  1019.6hPa North 6mph /  9.7km/h 8mph /  12.9km/h 28% 0in /  0.0mm 469 W/m2
18:06 86.5 °F /  30.3 °C 49.6 °F /  9.8 °C 30.1in /  1019.6hPa SSW 2mph /  3.2km/h 6mph /  9.7km/h 28% 0in /  0.0mm 455 W/m2
18:11 86.5 °F /  30.3 °C 49.6 °F /  9.8 °C 30.1in /  1019.3hPa WNW 0.9mph /  1.4km/h 3mph /  4.8km/h 28% 0in /  0.0mm 443 W/m2
18:16 86.2 °F /  30.1 °C 50.2 °F /  10.1 °C 30.1in /  1019.3hPa WNW 2.9mph /  4.7km/h 5mph /  8km/h 29% 0in /  0.0mm 431 W/m2
18:21 86.2 °F /  30.1 °C 50.2 °F /  10.1 °C 30.1in /  1019.3hPa SSE 2mph /  3.2km/h 6mph /  9.7km/h 29% 0in /  0.0mm 408 W/m2
18:26 86.4 °F /  30.2 °C 50.4 °F /  10.2 °C 30.1in /  1019.3hPa SE 0.9mph /  1.4km/h 6mph /  9.7km/h 29% 0in /  0.0mm 381 W/m2
18:31 86.4 °F /  30.2 °C 49.5 °F /  9.7 °C 30.1in /  1019.3hPa NE 2mph /  3.2km/h 4mph /  6.4km/h 28% 0in /  0.0mm 369 W/m2
18:36 86.2 °F /  30.1 °C 49.3 °F /  9.6 °C 30.1in /  1019.3hPa ENE 4mph /  6.4km/h 4mph /  6.4km/h 28% 0in /  0.0mm 360 W/m2
18:41 85.8 °F /  29.9 °C 48.9 °F /  9.4 °C 30.1in /  1019.3hPa NW 4mph /  6.4km/h 9mph /  14.5km/h 28% 0in /  0.0mm 350 W/m2
18:46 85.8 °F /  29.9 °C 48.9 °F /  9.4 °C 30.1in /  1019.3hPa NW 4mph /  6.4km/h 8mph /  12.9km/h 28% 0in /  0.0mm 339 W/m2
18:51 85.8 °F /  29.9 °C 49.8 °F /  9.9 °C 30.1in /  1019.3hPa NNW 0.9mph /  1.4km/h 9mph /  14.5km/h 29% 0in /  0.0mm 322 W/m2
18:56 86 °F /  30 °C 49.1 °F /  9.5 °C 30.1in /  1019.3hPa NW 0.9mph /  1.4km/h 1mph /  1.6km/h 28% 0in /  0.0mm 301 W/m2
19:01 86.2 °F /  30.1 °C 49.3 °F /  9.6 °C 30.1in /  1019.3hPa WSW 0.9mph /  1.4km/h 8mph /  12.9km/h 28% 0in /  0.0mm 274 W/m2
19:06 86.2 °F /  30.1 °C 49.3 °F /  9.6 °C 30.1in /  1019.3hPa West 2mph /  3.2km/h 4mph /  6.4km/h 28% 0in /  0.0mm 225 W/m2
19:11 86.2 °F /  30.1 °C 49.3 °F /  9.6 °C 30.1in /  1019.3hPa East 0.9mph /  1.4km/h 6mph /  9.7km/h 28% 0in /  0.0mm 49 W/m2
19:16 85.8 °F /  29.9 °C 49.8 °F /  9.9 °C 30.1in /  1019.3hPa South 2mph /  3.2km/h 4mph /  6.4km/h 29% 0in /  0.0mm 47 W/m2
19:21 85.8 °F /  29.9 °C 49.8 °F /  9.9 °C 30.1in /  1019.3hPa Calm   3mph /  4.8km/h 29% 0in /  0.0mm 44 W/m2
19:26 85.8 °F /  29.9 °C 49.8 °F /  9.9 °C 30.1in /  1019.3hPa SW 2mph /  3.2km/h 4mph /  6.4km/h 29% 0in /  0.0mm 40 W/m2
19:31 86 °F /  30 °C 49.1 °F /  9.5 °C 30.1in /  1019.3hPa NNE 2mph /  3.2km/h 4mph /  6.4km/h 28% 0in /  0.0mm 39 W/m2
19:36 85.6 °F /  29.8 °C 48.7 °F /  9.3 °C 30.1in /  1019.3hPa NW 0.9mph /  1.4km/h 2mph /  3.2km/h 28% 0in /  0.0mm 37 W/m2
19:41 85.3 °F /  29.6 °C 48.6 °F /  9.2 °C 30.1in /  1019.3hPa West 2mph /  3.2km/h 6mph /  9.7km/h 28% 0in /  0.0mm 35 W/m2
19:46 84.9 °F /  29.4 °C 49.1 °F /  9.5 °C 30.1in /  1019.3hPa West 0.9mph /  1.4km/h 4mph /  6.4km/h 29% 0in /  0.0mm 33 W/m2
19:51 84.7 °F /  29.3 °C 48.9 °F /  9.4 °C 30.1in /  1019.6hPa South 2mph /  3.2km/h 6mph /  9.7km/h 29% 0in /  0.0mm 32 W/m2
19:56 84.6 °F /  29.2 °C 48.7 °F /  9.3 °C 30.1in /  1019.6hPa Calm   6mph /  9.7km/h 29% 0in /  0.0mm 30 W/m2
20:01 84 °F /  28.9 °C 48.4 °F /  9.1 °C 30.1in /  1019.6hPa NNW 0.9mph /  1.4km/h 7mph /  11.3km/h 29% 0in /  0.0mm 28 W/m2
20:06 83.7 °F /  28.7 °C 48 °F /  8.9 °C 30.1in /  1019.6hPa SSW 0.9mph /  1.4km/h 4mph /  6.4km/h 29% 0in /  0.0mm 28 W/m2
20:11 83.5 °F /  28.6 °C 47.8 °F /  8.8 °C 30.1in /  1019.6hPa South 2mph /  3.2km/h 3mph /  4.8km/h 29% 0in /  0.0mm 26 W/m2
20:16 83.1 °F /  28.4 °C 47.7 °F /  8.7 °C 30.1in /  1019.6hPa North 2mph /  3.2km/h 4mph /  6.4km/h 29% 0in /  0.0mm 25 W/m2
20:21 82.8 °F /  28.2 °C 48.2 °F /  9 °C 30.1in /  1019.6hPa WNW 2mph /  3.2km/h 2mph /  3.2km/h 30% 0in /  0.0mm 21 W/m2
20:26 82.2 °F /  27.9 °C 47.7 °F /  8.7 °C 30.1in /  1019.6hPa Calm   4mph /  6.4km/h 30% 0in /  0.0mm 18 W/m2
20:31 81.9 °F /  27.7 °C 48.2 °F /  9 °C 30.1in /  1019.6hPa SE 2mph /  3.2km/h 6mph /  9.7km/h 31% 0in /  0.0mm 16 W/m2
20:36 81.3 °F /  27.4 °C 47.8 °F /  8.8 °C 30.1in /  1019.6hPa NNW 0.9mph /  1.4km/h 2mph /  3.2km/h 31% 0in /  0.0mm 16 W/m2
20:41 81 °F /  27.2 °C 47.5 °F /  8.6 °C 30.1in /  1020.0hPa NE 0.9mph /  1.4km/h 4mph /  6.4km/h 31% 0in /  0.0mm 12 W/m2
20:46 80.8 °F /  27.1 °C 47.3 °F /  8.5 °C 30.1in /  1020.0hPa NE 0.9mph /  1.4km/h 4mph /  6.4km/h 31% 0in /  0.0mm 11 W/m2
20:51 80.4 °F /  26.9 °C 47.8 °F /  8.8 °C 30.1in /  1020.0hPa ENE 2mph /  3.2km/h 4mph /  6.4km/h 32% 0in /  0.0mm 9 W/m2
20:56 80.1 °F /  26.7 °C 47.5 °F /  8.6 °C 30.1in /  1020.0hPa ESE 0.9mph /  1.4km/h 1mph /  1.6km/h 32% 0in /  0.0mm 7 W/m2
21:01 79.9 °F /  26.6 °C 47.3 °F /  8.5 °C 30.1in /  1020.0hPa NNW 0.9mph /  1.4km/h 2mph /  3.2km/h 32% 0in /  0.0mm 5 W/m2
21:06 79.3 °F /  26.3 °C 47.7 °F /  8.7 °C 30.1in /  1020.3hPa NNW 0.9mph /  1.4km/h 3mph /  4.8km/h 33% 0in /  0.0mm 0 W/m2
21:11 79.2 °F /  26.2 °C 47.7 °F /  8.7 °C 30.1in /  1020.3hPa Calm   1mph /  1.6km/h 33% 0in /  0.0mm 0 W/m2
21:16 78.8 °F /  26 °C 48 °F /  8.9 °C 30.1in /  1020.3hPa NW 2mph /  3.2km/h 3mph /  4.8km/h 34% 0in /  0.0mm 0 W/m2
21:21 78.4 °F /  25.8 °C 48.6 °F /  9.2 °C 30.1in /  1020.7hPa WNW 2mph /  3.2km/h 3mph /  4.8km/h 35% 0in /  0.0mm 0 W/m2
21:26 77.9 °F /  25.5 °C 48 °F /  8.9 °C 30.1in /  1020.7hPa Calm   4mph /  6.4km/h 35% 0in /  0.0mm 0 W/m2
21:31 77.5 °F /  25.3 °C 48.6 °F /  9.2 °C 30.1in /  1020.7hPa WNW 0.9mph /  1.4km/h 4mph /  6.4km/h 36% 0in /  0.0mm 0 W/m2
21:36 77.2 °F /  25.1 °C 48.9 °F /  9.4 °C 30.1in /  1020.7hPa NNW 2mph /  3.2km/h 3mph /  4.8km/h 37% 0in /  0.0mm 0 W/m2
21:41 76.6 °F /  24.8 °C 49.1 °F /  9.5 °C 30.1in /  1020.7hPa NNE 2.9mph /  4.7km/h 4mph /  6.4km/h 38% 0in /  0.0mm 0 W/m2
21:46 76.5 °F /  24.7 °C 49.6 °F /  9.8 °C 30.1in /  1020.7hPa NW 0.9mph /  1.4km/h 3mph /  4.8km/h 39% 0in /  0.0mm 0 W/m2
21:51 76.1 °F /  24.5 °C 49.3 °F /  9.6 °C 30.2in /  1021.0hPa NNW 4.9mph /  7.9km/h 6mph /  9.7km/h 39% 0in /  0.0mm 0 W/m2
21:56 75.9 °F /  24.4 °C 49.8 °F /  9.9 °C 30.2in /  1021.0hPa WSW 0.9mph /  1.4km/h 3mph /  4.8km/h 40% 0in /  0.0mm 0 W/m2
22:02 75.6 °F /  24.2 °C 50.2 °F /  10.1 °C 30.2in /  1021.0hPa North 0.9mph /  1.4km/h 8mph /  12.9km/h 41% 0in /  0.0mm 0 W/m2
22:07 75.4 °F /  24.1 °C 50 °F /  10 °C 30.2in /  1021.0hPa SW 2.9mph /  4.7km/h 4mph /  6.4km/h 41% 0in /  0.0mm 0 W/m2
22:12 75 °F /  23.9 °C 49.6 °F /  9.8 °C 30.2in /  1021.0hPa WNW 0.9mph /  1.4km/h 8mph /  12.9km/h 41% 0in /  0.0mm 0 W/m2
22:17 74.8 °F /  23.8 °C 50.2 °F /  10.1 °C 30.2in /  1021.3hPa NW 0.9mph /  1.4km/h 5mph /  8km/h 42% 0in /  0.0mm 0 W/m2
22:22 74.7 °F /  23.7 °C 50 °F /  10 °C 30.2in /  1021.3hPa NNW 2.9mph /  4.7km/h 3mph /  4.8km/h 42% 0in /  0.0mm 0 W/m2
22:27 74.5 °F /  23.6 °C 50.5 °F /  10.3 °C 30.2in /  1021.3hPa Calm   2mph /  3.2km/h 43% 0in /  0.0mm 0 W/m2
22:32 74.3 °F /  23.5 °C 50.4 °F /  10.2 °C 30.2in /  1021.3hPa North 0.9mph /  1.4km/h 2mph /  3.2km/h 43% 0in /  0.0mm 0 W/m2
22:37 74.1 °F /  23.4 °C 50.9 °F /  10.5 °C 30.2in /  1021.3hPa NNW 0.9mph /  1.4km/h 2mph /  3.2km/h 44% 0in /  0.0mm 0 W/m2
22:42 73.9 °F /  23.3 °C 50.7 °F /  10.4 °C 30.2in /  1021.3hPa NNW 2mph /  3.2km/h 3mph /  4.8km/h 44% 0in /  0.0mm 0 W/m2
22:47 73.6 °F /  23.1 °C 50.4 °F /  10.2 °C 30.2in /  1021.3hPa West 2.9mph /  4.7km/h 3mph /  4.8km/h 44% 0in /  0.0mm 0 W/m2
22:52 73.6 °F /  23.1 °C 50.4 °F /  10.2 °C 30.2in /  1021.3hPa NNE 5mph /  8km/h 5mph /  8km/h 44% 0in /  0.0mm 0 W/m2
22:57 73.4 °F /  23 °C 50.7 °F /  10.4 °C 30.2in /  1021.3hPa West 2mph /  3.2km/h 6mph /  9.7km/h 45% 0in /  0.0mm 0 W/m2
23:02 73.2 °F /  22.9 °C 50.5 °F /  10.3 °C 30.2in /  1021.3hPa Calm   4mph /  6.4km/h 45% 0in /  0.0mm 0 W/m2
23:07 73 °F /  22.8 °C 50.4 °F /  10.2 °C 30.2in /  1021.3hPa NW 2mph /  3.2km/h 5mph /  8km/h 45% 0in /  0.0mm 0 W/m2
23:12 72.9 °F /  22.7 °C 50.9 °F /  10.5 °C 30.2in /  1021.3hPa West 2mph /  3.2km/h 3mph /  4.8km/h 46% 0in /  0.0mm 0 W/m2
23:17 72.7 °F /  22.6 °C 50.7 °F /  10.4 °C 30.2in /  1021.3hPa West 2.9mph /  4.7km/h 5mph /  8km/h 46% 0in /  0.0mm 0 W/m2
23:22 72.5 °F /  22.5 °C 51.1 °F /  10.6 °C 30.2in /  1021.7hPa NW 2.9mph /  4.7km/h 3mph /  4.8km/h 47% 0in /  0.0mm 0 W/m2
23:27 72.3 °F /  22.4 °C 50.9 °F /  10.5 °C 30.2in /  1021.3hPa NNE 2.9mph /  4.7km/h 8mph /  12.9km/h 47% 0in /  0.0mm 0 W/m2
23:32 72.1 °F /  22.3 °C 51.4 °F /  10.8 °C 30.2in /  1021.7hPa West 4mph /  6.4km/h 4mph /  6.4km/h 48% 0in /  0.0mm 0 W/m2
23:37 72 °F /  22.2 °C 51.3 °F /  10.7 °C 30.2in /  1021.7hPa North 2.9mph /  4.7km/h 8mph /  12.9km/h 48% 0in /  0.0mm 0 W/m2
23:42 72 °F /  22.2 °C 51.8 °F /  11 °C 30.2in /  1021.7hPa WNW 2.9mph /  4.7km/h 3mph /  4.8km/h 49% 0in /  0.0mm 0 W/m2
23:47 71.8 °F /  22.1 °C 51.6 °F /  10.9 °C 30.2in /  1021.7hPa ESE 0.9mph /  1.4km/h 6mph /  9.7km/h 49% 0in /  0.0mm 0 W/m2
23:52 71.6 °F /  22 °C 52 °F /  11.1 °C 30.2in /  1021.7hPa North 2.9mph /  4.7km/h 8mph /  12.9km/h 50% 0in /  0.0mm 0 W/m2
23:57 71.4 °F /  21.9 °C 51.8 °F /  11 °C 30.2in /  1021.7hPa NW 0.9mph /  1.4km/h 5mph /  8km/h 50% 0in /  0.0mm 0 W/m2
Juneau County Weather
Compliments of Weather Underground - 4 mb